createdAt,value
2018-01-12T00:09:55.000Z,39.7
2018-01-12T00:19:55.000Z,40.2
2018-01-12T00:29:55.000Z,40.3
2018-01-12T00:39:55.000Z,40.6
2018-01-12T00:49:55.000Z,41
2018-01-12T00:59:55.000Z,41.3
2018-01-12T01:09:55.000Z,41.5
2018-01-12T01:19:56.000Z,41.5
2018-01-12T01:29:55.000Z,41.3
2018-01-12T01:39:55.000Z,41.5
2018-01-12T01:49:55.000Z,41.9
2018-01-12T01:59:55.000Z,42
2018-01-12T02:09:55.000Z,41.9
2018-01-12T02:19:55.000Z,41.7
2018-01-12T02:29:55.000Z,41.8
2018-01-12T02:39:55.000Z,41.7
2018-01-12T02:49:55.000Z,41.9
2018-01-12T02:59:55.000Z,42
2018-01-12T03:09:55.000Z,41.8
2018-01-12T03:19:55.000Z,41.7
2018-01-12T03:29:55.000Z,42.3
2018-01-12T03:39:55.000Z,42
2018-01-12T03:49:55.000Z,42
2018-01-12T03:59:55.000Z,42.6
2018-01-12T04:09:55.000Z,42.3
2018-01-12T04:19:55.000Z,42.3
2018-01-12T04:29:55.000Z,42.1
2018-01-12T04:39:55.000Z,42.2
2018-01-12T04:49:55.000Z,42
2018-01-12T04:59:55.000Z,42.4
2018-01-12T05:09:55.000Z,42.2
2018-01-12T05:19:55.000Z,42.4
2018-01-12T05:29:55.000Z,42.6
2018-01-12T05:39:55.000Z,42.3
2018-01-12T05:49:55.000Z,42.4
2018-01-12T05:59:55.000Z,42.5
2018-01-12T06:09:55.000Z,42.7
2018-01-12T06:19:55.000Z,43
2018-01-12T06:29:56.000Z,42.9
2018-01-12T06:39:56.000Z,42.9
2018-01-12T06:49:56.000Z,42.9
2018-01-12T06:59:56.000Z,42.9
2018-01-12T07:09:56.000Z,42.7
2018-01-12T07:19:56.000Z,42.9
2018-01-12T07:29:56.000Z,42.3
2018-01-12T07:39:56.000Z,41.6
2018-01-12T07:49:56.000Z,41.3
2018-01-12T07:59:56.000Z,41.6
2018-01-12T08:09:56.000Z,43.4
2018-01-12T08:19:56.000Z,43.9
2018-01-12T08:29:56.000Z,44.3
2018-01-12T08:39:56.000Z,47.7
2018-01-12T08:49:56.000Z,47.9
2018-01-12T08:59:56.000Z,46.7
2018-01-12T09:09:56.000Z,47.5
2018-01-12T09:19:56.000Z,48.4
2018-01-12T09:29:56.000Z,47.4
2018-01-12T09:39:56.000Z,46.3
2018-01-12T09:49:56.000Z,45.9
2018-01-12T09:59:56.000Z,45.7
2018-01-12T10:09:56.000Z,46
2018-01-12T10:19:56.000Z,47
2018-01-12T10:29:56.000Z,47.8
2018-01-12T10:39:56.000Z,48
2018-01-12T10:49:56.000Z,48.4
2018-01-12T10:59:56.000Z,49.4
2018-01-12T11:09:56.000Z,50
2018-01-12T11:19:56.000Z,50.5
2018-01-12T11:29:56.000Z,50.4
2018-01-12T11:39:56.000Z,50.6
2018-01-12T11:49:56.000Z,50.6
2018-01-12T11:59:56.000Z,50.5
2018-01-12T12:09:56.000Z,50.4
2018-01-12T12:19:56.000Z,50
2018-01-12T12:29:56.000Z,49.7
2018-01-12T12:39:56.000Z,49.2
2018-01-12T12:49:56.000Z,49.8
2018-01-12T12:59:56.000Z,50.7
2018-01-12T13:09:56.000Z,51.1
2018-01-12T13:19:56.000Z,51.5
2018-01-12T13:29:57.000Z,51.7
2018-01-12T13:39:59.000Z,52.1
2018-01-12T13:49:57.000Z,51.7
2018-01-12T13:59:57.000Z,51.6
2018-01-12T14:09:57.000Z,52.1
2018-01-12T14:19:57.000Z,52.1
2018-01-12T14:29:57.000Z,51.9
2018-01-12T14:39:57.000Z,51.9
2018-01-12T14:49:57.000Z,51.4
2018-01-12T14:59:57.000Z,51.7
2018-01-12T15:09:57.000Z,51.7
2018-01-12T15:19:57.000Z,51.3
2018-01-12T15:29:57.000Z,51.9
2018-01-12T15:39:57.000Z,51.3
2018-01-12T15:49:57.000Z,51
2018-01-12T15:59:57.000Z,52.3
2018-01-12T16:09:57.000Z,52.6
2018-01-12T16:19:57.000Z,53
2018-01-12T16:29:57.000Z,52.9
2018-01-12T16:39:57.000Z,52.8
2018-01-12T16:49:57.000Z,53
2018-01-12T16:59:57.000Z,52.9
2018-01-12T17:09:57.000Z,52.9
2018-01-12T17:19:57.000Z,52.4
2018-01-12T17:29:57.000Z,52.2
2018-01-12T17:39:57.000Z,52.2
2018-01-12T17:49:57.000Z,52.1
2018-01-12T17:59:57.000Z,52.2
2018-01-12T18:09:59.000Z,52.2
2018-01-12T18:19:57.000Z,52.2
2018-01-12T18:29:57.000Z,52.2
2018-01-12T18:49:57.000Z,52.1
2018-01-12T18:59:57.000Z,52
2018-01-12T19:09:57.000Z,52
2018-01-12T19:19:57.000Z,51.9
2018-01-12T19:29:57.000Z,51.8
2018-01-12T19:39:57.000Z,51.8
2018-01-12T19:50:00.000Z,51.7
2018-01-12T19:59:57.000Z,51.7
2018-01-12T20:09:57.000Z,51.5
2018-01-12T20:19:58.000Z,51.1
2018-01-12T20:29:58.000Z,50.6
2018-01-12T20:39:58.000Z,43.5
2018-01-12T20:49:58.000Z,41.4
2018-01-12T20:59:58.000Z,42.1
2018-01-12T21:09:58.000Z,42.6
2018-01-12T21:19:58.000Z,42.5
2018-01-12T21:29:59.000Z,42.4
2018-01-12T21:39:58.000Z,43
2018-01-12T21:49:58.000Z,43.4
2018-01-12T21:59:58.000Z,43.7
2018-01-12T22:09:58.000Z,43.9
2018-01-12T22:19:58.000Z,43.1
2018-01-12T22:29:58.000Z,43
2018-01-12T22:39:58.000Z,43.3
2018-01-12T22:49:58.000Z,43.4
2018-01-12T22:59:59.000Z,43.4
2018-01-12T23:09:58.000Z,43.5
2018-01-12T23:19:58.000Z,43.9
2018-01-12T23:29:58.000Z,45.3
2018-01-12T23:39:58.000Z,44.4
2018-01-12T23:49:58.000Z,44.2
2018-01-12T23:59:58.000Z,44.3
